sensor_id;sensor_type;location;lat;lon;timestamp;pressure;altitude;pressure_sealevel;temperature;humidity
15817;BME280;8009;50.070;8.232;2022-08-21T00:00:40;100049.84;;;19.60;50.32
15817;BME280;8009;50.070;8.232;2022-08-21T00:03:10;100042.16;;;19.56;49.53
15817;BME280;8009;50.070;8.232;2022-08-21T00:05:42;100037.22;;;19.51;49.79
15817;BME280;8009;50.070;8.232;2022-08-21T00:08:14;100037.38;;;19.41;49.99
15817;BME280;8009;50.070;8.232;2022-08-21T00:10:47;100036.19;;;19.44;49.88
15817;BME280;8009;50.070;8.232;2022-08-21T00:13:17;100031.94;;;19.25;50.56
15817;BME280;8009;50.070;8.232;2022-08-21T00:15:47;100043.06;;;19.32;49.85
15817;BME280;8009;50.070;8.232;2022-08-21T00:18:17;100039.94;;;19.59;49.58
15817;BME280;8009;50.070;8.232;2022-08-21T00:20:46;100037.72;;;19.30;50.88
15817;BME280;8009;50.070;8.232;2022-08-21T00:23:18;100044.56;;;19.10;51.25
15817;BME280;8009;50.070;8.232;2022-08-21T00:25:46;100040.31;;;19.23;51.79
15817;BME280;8009;50.070;8.232;2022-08-21T00:28:15;100045.94;;;19.30;51.20
15817;BME280;8009;50.070;8.232;2022-08-21T00:30:44;100037.22;;;19.27;50.96
15817;BME280;8009;50.070;8.232;2022-08-21T00:33:13;100038.25;;;19.34;51.27
15817;BME280;8009;50.070;8.232;2022-08-21T00:35:42;100045.09;;;19.13;51.82
15817;BME280;8009;50.070;8.232;2022-08-21T00:38:11;100039.28;;;19.08;51.77
15817;BME280;8009;50.070;8.232;2022-08-21T00:40:45;100049.72;;;19.05;51.86
15817;BME280;8009;50.070;8.232;2022-08-21T00:43:18;100046.28;;;19.03;52.45
15817;BME280;8009;50.070;8.232;2022-08-21T00:45:47;100046.47;;;19.01;52.40
15817;BME280;8009;50.070;8.232;2022-08-21T00:48:18;100045.22;;;18.87;52.39
15817;BME280;8009;50.070;8.232;2022-08-21T00:50:52;100041.66;;;18.95;52.25
15817;BME280;8009;50.070;8.232;2022-08-21T00:53:24;100040.78;;;18.86;52.25
15817;BME280;8009;50.070;8.232;2022-08-21T00:55:56;100046.59;;;18.91;52.25
15817;BME280;8009;50.070;8.232;2022-08-21T00:58:28;100039.63;;;18.89;52.35
15817;BME280;8009;50.070;8.232;2022-08-21T01:00:59;100041.31;;;18.98;53.08
15817;BME280;8009;50.070;8.232;2022-08-21T01:03:29;100040.09;;;18.84;53.43
15817;BME280;8009;50.070;8.232;2022-08-21T01:05:58;100044.38;;;18.79;52.81
15817;BME280;8009;50.070;8.232;2022-08-21T01:08:28;100041.81;;;18.85;52.68
15817;BME280;8009;50.070;8.232;2022-08-21T01:11:00;100036.97;;;18.63;53.02
15817;BME280;8009;50.070;8.232;2022-08-21T01:13:32;100045.75;;;18.83;52.60
15817;BME280;8009;50.070;8.232;2022-08-21T01:16:04;100043.00;;;18.74;52.93
15817;BME280;8009;50.070;8.232;2022-08-21T01:18:36;100032.00;;;18.66;52.97
15817;BME280;8009;50.070;8.232;2022-08-21T01:21:34;100036.69;;;18.82;53.16
15817;BME280;8009;50.070;8.232;2022-08-21T01:24:15;100037.72;;;18.97;52.78
15817;BME280;8009;50.070;8.232;2022-08-21T01:26:55;100039.50;;;18.64;53.03
15817;BME280;8009;50.070;8.232;2022-08-21T01:29:30;100038.72;;;18.72;53.07
15817;BME280;8009;50.070;8.232;2022-08-21T01:32:04;100039.41;;;18.74;53.38
15817;BME280;8009;50.070;8.232;2022-08-21T01:34:37;100037.00;;;18.71;53.45
15817;BME280;8009;50.070;8.232;2022-08-21T01:37:09;100036.69;;;18.74;53.35
15817;BME280;8009;50.070;8.232;2022-08-21T01:39:39;100037.13;;;18.69;52.86
15817;BME280;8009;50.070;8.232;2022-08-21T01:42:08;100025.81;;;18.48;53.96
15817;BME280;8009;50.070;8.232;2022-08-21T01:44:36;100034.53;;;18.51;53.50
15817;BME280;8009;50.070;8.232;2022-08-21T01:47:09;100026.53;;;18.66;53.89
15817;BME280;8009;50.070;8.232;2022-08-21T01:49:40;100038.91;;;18.79;53.45
15817;BME280;8009;50.070;8.232;2022-08-21T01:52:12;100029.84;;;18.78;53.09
15817;BME280;8009;50.070;8.232;2022-08-21T01:54:41;100029.44;;;18.65;53.66
15817;BME280;8009;50.070;8.232;2022-08-21T01:57:11;100031.81;;;18.60;54.02
15817;BME280;8009;50.070;8.232;2022-08-21T01:59:40;100030.59;;;18.54;53.69
15817;BME280;8009;50.070;8.232;2022-08-21T02:02:09;100025.84;;;18.64;54.25
15817;BME280;8009;50.070;8.232;2022-08-21T02:04:38;100015.75;;;18.57;53.75
15817;BME280;8009;50.070;8.232;2022-08-21T02:07:06;100011.28;;;18.47;53.13
15817;BME280;8009;50.070;8.232;2022-08-21T02:09:37;100008.91;;;18.61;53.77
15817;BME280;8009;50.070;8.232;2022-08-21T02:12:07;100013.53;;;18.60;53.55
15817;BME280;8009;50.070;8.232;2022-08-21T02:14:36;100006.34;;;18.59;53.35
15817;BME280;8009;50.070;8.232;2022-08-21T02:17:04;100006.19;;;18.61;53.03
15817;BME280;8009;50.070;8.232;2022-08-21T02:19:33;100014.38;;;18.52;53.52
15817;BME280;8009;50.070;8.232;2022-08-21T02:22:01;100011.63;;;18.52;53.03
15817;BME280;8009;50.070;8.232;2022-08-21T02:24:29;100009.41;;;18.56;53.36
15817;BME280;8009;50.070;8.232;2022-08-21T02:27:00;100005.94;;;18.30;53.56
15817;BME280;8009;50.070;8.232;2022-08-21T02:29:29;100011.56;;;18.28;53.72
15817;BME280;8009;50.070;8.232;2022-08-21T02:31:57;100016.22;;;18.36;53.92
15817;BME280;8009;50.070;8.232;2022-08-21T02:34:26;100011.72;;;18.26;54.23
15817;BME280;8009;50.070;8.232;2022-08-21T02:36:54;100011.09;;;18.41;53.72
15817;BME280;8009;50.070;8.232;2022-08-21T02:39:22;100011.03;;;18.24;54.24
15817;BME280;8009;50.070;8.232;2022-08-21T02:41:51;100010.84;;;18.18;54.13
15817;BME280;8009;50.070;8.232;2022-08-21T02:44:22;100011.50;;;18.20;54.34
15817;BME280;8009;50.070;8.232;2022-08-21T02:46:50;100011.31;;;18.05;55.03
15817;BME280;8009;50.070;8.232;2022-08-21T02:49:18;100011.13;;;18.07;54.70
15817;BME280;8009;50.070;8.232;2022-08-21T02:51:47;100008.56;;;18.05;55.74
15817;BME280;8009;50.070;8.232;2022-08-21T02:54:15;100011.09;;;17.98;55.55
15817;BME280;8009;50.070;8.232;2022-08-21T02:56:44;100015.44;;;18.09;55.48
15817;BME280;8009;50.070;8.232;2022-08-21T02:59:12;100016.94;;;18.12;55.37
15817;BME280;8009;50.070;8.232;2022-08-21T03:01:43;100021.06;;;18.16;54.60
15817;BME280;8009;50.070;8.232;2022-08-21T03:04:11;100016.81;;;18.13;54.95
15817;BME280;8009;50.070;8.232;2022-08-21T03:06:40;100012.72;;;18.17;54.56
15817;BME280;8009;50.070;8.232;2022-08-21T03:09:08;100010.34;;;18.31;54.48
15817;BME280;8009;50.070;8.232;2022-08-21T03:11:37;100017.00;;;17.86;55.92
15817;BME280;8009;50.070;8.232;2022-08-21T03:14:05;100010.16;;;17.82;56.21
15817;BME280;8009;50.070;8.232;2022-08-21T03:16:33;100020.28;;;17.63;56.86
15817;BME280;8009;50.070;8.232;2022-08-21T03:19:04;100013.38;;;17.77;56.83
15817;BME280;8009;50.070;8.232;2022-08-21T03:21:33;100007.41;;;17.82;56.84
15817;BME280;8009;50.070;8.232;2022-08-21T03:24:02;100014.81;;;17.63;57.04
15817;BME280;8009;50.070;8.232;2022-08-21T03:26:32;100012.97;;;17.72;56.91
15817;BME280;8009;50.070;8.232;2022-08-21T03:29:01;100008.06;;;17.49;57.46
15817;BME280;8009;50.070;8.232;2022-08-21T03:31:29;100002.31;;;17.35;57.92
15817;BME280;8009;50.070;8.232;2022-08-21T03:33:58;99993.44;;;17.33;58.07
15817;BME280;8009;50.070;8.232;2022-08-21T03:36:29;99999.28;;;17.38;58.39
15817;BME280;8009;50.070;8.232;2022-08-21T03:38:57;100003.81;;;17.29;58.68
15817;BME280;8009;50.070;8.232;2022-08-21T03:41:27;100003.47;;;17.32;58.95
15817;BME280;8009;50.070;8.232;2022-08-21T03:43:57;100010.75;;;17.23;58.97
15817;BME280;8009;50.070;8.232;2022-08-21T03:46:26;100007.72;;;17.09;59.23
15817;BME280;8009;50.070;8.232;2022-08-21T03:48:54;100013.81;;;17.20;58.90
15817;BME280;8009;50.070;8.232;2022-08-21T03:51:23;100009.28;;;17.29;58.64
15817;BME280;8009;50.070;8.232;2022-08-21T03:53:54;100013.97;;;17.01;59.39
15817;BME280;8009;50.070;8.232;2022-08-21T03:56:23;100015.84;;;17.00;59.25
15817;BME280;8009;50.070;8.232;2022-08-21T03:58:51;100016.31;;;17.14;59.32
15817;BME280;8009;50.070;8.232;2022-08-21T04:01:21;100026.63;;;17.02;59.55
15817;BME280;8009;50.070;8.232;2022-08-21T04:03:49;100017.72;;;17.00;60.30
15817;BME280;8009;50.070;8.232;2022-08-21T04:06:17;100015.13;;;17.16;59.90
15817;BME280;8009;50.070;8.232;2022-08-21T04:08:46;100019.44;;;17.19;59.19
15817;BME280;8009;50.070;8.232;2022-08-21T04:11:17;100025.13;;;16.90;59.94
15817;BME280;8009;50.070;8.232;2022-08-21T04:13:45;100023.72;;;17.03;59.31
15817;BME280;8009;50.070;8.232;2022-08-21T04:16:16;100025.97;;;17.08;59.66
15817;BME280;8009;50.070;8.232;2022-08-21T04:18:45;100033.56;;;16.96;59.62
15817;BME280;8009;50.070;8.232;2022-08-21T04:21:13;100045.25;;;16.89;60.10
15817;BME280;8009;50.070;8.232;2022-08-21T04:23:41;100040.63;;;16.89;60.43
15817;BME280;8009;50.070;8.232;2022-08-21T04:26:10;100046.56;;;16.85;60.05
15817;BME280;8009;50.070;8.232;2022-08-21T04:28:41;100047.78;;;16.90;60.05
15817;BME280;8009;50.070;8.232;2022-08-21T04:31:10;100042.91;;;17.12;59.77
15817;BME280;8009;50.070;8.232;2022-08-21T04:33:38;100056.63;;;16.84;60.27
15817;BME280;8009;50.070;8.232;2022-08-21T04:36:08;100060.66;;;16.98;60.11
15817;BME280;8009;50.070;8.232;2022-08-21T04:38:36;100054.81;;;16.93;60.41
15817;BME280;8009;50.070;8.232;2022-08-21T04:41:04;100058.78;;;16.80;59.78
15817;BME280;8009;50.070;8.232;2022-08-21T04:43:33;100066.72;;;16.74;60.43
15817;BME280;8009;50.070;8.232;2022-08-21T04:46:05;100068.31;;;16.76;60.19
15817;BME280;8009;50.070;8.232;2022-08-21T04:48:34;100068.31;;;16.76;60.77
15817;BME280;8009;50.070;8.232;2022-08-21T04:51:07;100072.88;;;16.94;60.77
15817;BME280;8009;50.070;8.232;2022-08-21T04:53:41;100075.38;;;17.05;60.78
15817;BME280;8009;50.070;8.232;2022-08-21T04:56:14;100073.31;;;16.99;60.90
15817;BME280;8009;50.070;8.232;2022-08-21T04:58:43;100074.53;;;17.04;59.79
15817;BME280;8009;50.070;8.232;2022-08-21T05:01:17;100067.31;;;16.95;60.32
15817;BME280;8009;50.070;8.232;2022-08-21T05:03:48;100069.72;;;16.98;60.41
15817;BME280;8009;50.070;8.232;2022-08-21T05:06:17;100075.09;;;17.08;61.13
15817;BME280;8009;50.070;8.232;2022-08-21T05:08:48;100067.22;;;17.05;60.45
15817;BME280;8009;50.070;8.232;2022-08-21T05:11:17;100069.50;;;17.10;60.72
15817;BME280;8009;50.070;8.232;2022-08-21T05:13:47;100071.44;;;17.17;60.63
15817;BME280;8009;50.070;8.232;2022-08-21T05:16:18;100077.19;;;17.14;60.99
15817;BME280;8009;50.070;8.232;2022-08-21T05:18:47;100079.38;;;17.11;60.95
15817;BME280;8009;50.070;8.232;2022-08-21T05:21:15;100077.28;;;17.22;61.69
15817;BME280;8009;50.070;8.232;2022-08-21T05:23:44;100077.28;;;17.22;61.07
15817;BME280;8009;50.070;8.232;2022-08-21T05:26:12;100090.91;;;17.22;61.26
15817;BME280;8009;50.070;8.232;2022-08-21T05:28:41;100081.16;;;17.38;60.94
15817;BME280;8009;50.070;8.232;2022-08-21T05:31:10;100075.69;;;17.38;61.48
15817;BME280;8009;50.070;8.232;2022-08-21T05:33:41;100070.84;;;17.32;60.65
15817;BME280;8009;50.070;8.232;2022-08-21T05:36:09;100066.25;;;17.32;61.13
15817;BME280;8009;50.070;8.232;2022-08-21T05:38:38;100075.81;;;17.54;60.45
15817;BME280;8009;50.070;8.232;2022-08-21T05:41:06;100079.19;;;17.48;61.32
15817;BME280;8009;50.070;8.232;2022-08-21T05:43:35;100070.47;;;17.44;60.86
15817;BME280;8009;50.070;8.232;2022-08-21T05:46:04;100072.28;;;17.62;60.79
15817;BME280;8009;50.070;8.232;2022-08-21T05:48:33;100069.16;;;17.74;60.11
15817;BME280;8009;50.070;8.232;2022-08-21T05:51:07;100077.25;;;17.66;60.55
15817;BME280;8009;50.070;8.232;2022-08-21T05:53:36;100072.88;;;17.73;60.96
15817;BME280;8009;50.070;8.232;2022-08-21T05:56:08;100083.19;;;17.80;60.01
15817;BME280;8009;50.070;8.232;2022-08-21T05:58:36;100079.88;;;17.94;58.42
15817;BME280;8009;50.070;8.232;2022-08-21T06:01:05;100077.56;;;18.07;57.84
15817;BME280;8009;50.070;8.232;2022-08-21T06:03:36;100076.22;;;18.11;57.71
15817;BME280;8009;50.070;8.232;2022-08-21T06:06:07;100078.09;;;18.11;57.37
15817;BME280;8009;50.070;8.232;2022-08-21T06:08:38;100075.63;;;17.99;57.71
15817;BME280;8009;50.070;8.232;2022-08-21T06:11:07;100083.22;;;18.14;56.86
15817;BME280;8009;50.070;8.232;2022-08-21T06:13:36;100080.66;;;18.12;57.28
15817;BME280;8009;50.070;8.232;2022-08-21T06:16:08;100082.78;;;18.26;57.23
15817;BME280;8009;50.070;8.232;2022-08-21T06:18:39;100078.03;;;18.37;57.26
15817;BME280;8009;50.070;8.232;2022-08-21T06:21:11;100076.34;;;18.36;56.92
15817;BME280;8009;50.070;8.232;2022-08-21T06:23:40;100076.00;;;18.39;56.19
15817;BME280;8009;50.070;8.232;2022-08-21T06:26:11;100077.19;;;18.36;56.61
15817;BME280;8009;50.070;8.232;2022-08-21T06:28:41;100080.56;;;18.30;56.89
15817;BME280;8009;50.070;8.232;2022-08-21T06:31:12;100073.97;;;18.41;56.69
15817;BME280;8009;50.070;8.232;2022-08-21T06:33:41;100066.81;;;18.48;56.36
15817;BME280;8009;50.070;8.232;2022-08-21T06:36:12;100065.81;;;18.65;56.49
15817;BME280;8009;50.070;8.232;2022-08-21T06:38:41;100063.50;;;18.70;56.48
15817;BME280;8009;50.070;8.232;2022-08-21T06:41:10;100059.50;;;18.57;57.08
15817;BME280;8009;50.070;8.232;2022-08-21T06:43:38;100066.94;;;18.81;56.33
15817;BME280;8009;50.070;8.232;2022-08-21T06:46:07;100071.22;;;18.91;56.17
15817;BME280;8009;50.070;8.232;2022-08-21T06:48:36;100060.47;;;18.98;56.14
15817;BME280;8009;50.070;8.232;2022-08-21T06:51:04;100064.06;;;18.98;55.75
15817;BME280;8009;50.070;8.232;2022-08-21T06:53:35;100073.97;;;19.08;55.42
15817;BME280;8009;50.070;8.232;2022-08-21T06:56:04;100061.50;;;19.05;55.76
15817;BME280;8009;50.070;8.232;2022-08-21T06:58:33;100066.81;;;19.15;55.97
15817;BME280;8009;50.070;8.232;2022-08-21T07:01:01;100065.09;;;19.30;56.07
15817;BME280;8009;50.070;8.232;2022-08-21T07:03:32;100064.09;;;19.31;55.72
15817;BME280;8009;50.070;8.232;2022-08-21T07:06:01;100065.28;;;19.37;55.44
15817;BME280;8009;50.070;8.232;2022-08-21T07:08:30;100067.00;;;19.54;54.73
15817;BME280;8009;50.070;8.232;2022-08-21T07:11:03;100068.38;;;19.58;54.86
15817;BME280;8009;50.070;8.232;2022-08-21T07:13:34;100069.06;;;19.77;53.58
15817;BME280;8009;50.070;8.232;2022-08-21T07:16:03;100069.06;;;19.77;54.15
15817;BME280;8009;50.070;8.232;2022-08-21T07:18:31;100074.34;;;19.86;54.18
15817;BME280;8009;50.070;8.232;2022-08-21T07:21:00;100063.53;;;19.93;54.61
15817;BME280;8009;50.070;8.232;2022-08-21T07:23:33;100066.22;;;20.09;54.00
15817;BME280;8009;50.070;8.232;2022-08-21T07:26:04;100068.31;;;20.07;54.44
15817;BME280;8009;50.070;8.232;2022-08-21T07:28:33;100065.69;;;20.14;53.42
15817;BME280;8009;50.070;8.232;2022-08-21T07:31:03;100064.28;;;20.34;53.46
15817;BME280;8009;50.070;8.232;2022-08-21T07:33:33;100063.00;;;20.45;53.28
15817;BME280;8009;50.070;8.232;2022-08-21T07:36:03;100070.38;;;20.44;53.17
15817;BME280;8009;50.070;8.232;2022-08-21T07:38:31;100061.47;;;20.51;53.44
15817;BME280;8009;50.070;8.232;2022-08-21T07:41:00;100069.00;;;20.57;52.45
15817;BME280;8009;50.070;8.232;2022-08-21T07:43:32;100063.47;;;20.65;52.30
15817;BME280;8009;50.070;8.232;2022-08-21T07:46:00;100056.78;;;20.59;52.41
15817;BME280;8009;50.070;8.232;2022-08-21T07:48:29;100057.16;;;20.56;52.19
15817;BME280;8009;50.070;8.232;2022-08-21T07:50:58;100053.94;;;20.84;52.09
15817;BME280;8009;50.070;8.232;2022-08-21T07:53:27;100051.69;;;20.87;52.40
15817;BME280;8009;50.070;8.232;2022-08-21T07:55:57;100053.31;;;20.97;52.37
15817;BME280;8009;50.070;8.232;2022-08-21T07:58:25;100051.72;;;21.02;51.88
15817;BME280;8009;50.070;8.232;2022-08-21T08:00:56;100044.97;;;21.13;52.41
15817;BME280;8009;50.070;8.232;2022-08-21T08:03:25;100053.88;;;21.15;52.38
15817;BME280;8009;50.070;8.232;2022-08-21T08:05:55;100038.00;;;21.25;51.36
15817;BME280;8009;50.070;8.232;2022-08-21T08:08:24;100042.09;;;21.52;53.16
15817;BME280;8009;50.070;8.232;2022-08-21T08:10:55;100033.94;;;21.59;52.29
15817;BME280;8009;50.070;8.232;2022-08-21T08:13:25;100032.03;;;21.59;51.07
15817;BME280;8009;50.070;8.232;2022-08-21T08:15:56;100037.97;;;21.71;51.09
15817;BME280;8009;50.070;8.232;2022-08-21T08:18:25;100031.03;;;21.90;52.77
15817;BME280;8009;50.070;8.232;2022-08-21T08:20:53;100027.34;;;21.98;49.27
15817;BME280;8009;50.070;8.232;2022-08-21T08:23:22;100039.13;;;22.06;52.05
15817;BME280;8009;50.070;8.232;2022-08-21T08:25:50;100030.81;;;22.14;50.12
15817;BME280;8009;50.070;8.232;2022-08-21T08:28:19;100024.34;;;22.22;52.54
15817;BME280;8009;50.070;8.232;2022-08-21T08:30:47;100021.59;;;22.22;52.02
15817;BME280;8009;50.070;8.232;2022-08-21T08:33:18;100026.25;;;22.36;50.63
15817;BME280;8009;50.070;8.232;2022-08-21T08:35:50;100019.22;;;22.34;49.25
15817;BME280;8009;50.070;8.232;2022-08-21T08:38:20;100017.09;;;22.36;50.33
15817;BME280;8009;50.070;8.232;2022-08-21T08:40:53;100011.06;;;22.26;49.35
15817;BME280;8009;50.070;8.232;2022-08-21T08:43:27;100012.47;;;22.51;48.04
15817;BME280;8009;50.070;8.232;2022-08-21T08:45:58;100011.66;;;22.57;48.93
15817;BME280;8009;50.070;8.232;2022-08-21T08:48:45;100010.81;;;22.57;52.54
15817;BME280;8009;50.070;8.232;2022-08-21T08:51:22;100009.41;;;22.46;52.73
15817;BME280;8009;50.070;8.232;2022-08-21T08:53:55;100005.53;;;22.55;47.89
15817;BME280;8009;50.070;8.232;2022-08-21T08:56:29;100011.38;;;22.67;48.05
15817;BME280;8009;50.070;8.232;2022-08-21T08:59:02;100006.66;;;22.82;46.88
15817;BME280;8009;50.070;8.232;2022-08-21T09:01:35;100014.25;;;22.95;47.17
15817;BME280;8009;50.070;8.232;2022-08-21T09:04:06;100011.56;;;23.02;45.04
15817;BME280;8009;50.070;8.232;2022-08-21T09:06:44;100000.69;;;22.94;47.50
15817;BME280;8009;50.070;8.232;2022-08-21T09:09:28;99998.19;;;22.99;51.33
15817;BME280;8009;50.070;8.232;2022-08-21T09:12:03;100001.78;;;23.49;48.19
15817;BME280;8009;50.070;8.232;2022-08-21T09:14:43;99991.78;;;23.69;49.50
15817;BME280;8009;50.070;8.232;2022-08-21T09:17:25;99996.09;;;24.13;42.56
15817;BME280;8009;50.070;8.232;2022-08-21T09:20:08;99987.88;;;24.20;41.54
15817;BME280;8009;50.070;8.232;2022-08-21T09:22:48;99993.50;;;24.40;45.61
15817;BME280;8009;50.070;8.232;2022-08-21T09:25:24;99987.03;;;24.74;39.61
15817;BME280;8009;50.070;8.232;2022-08-21T09:27:53;99995.03;;;24.55;43.30
15817;BME280;8009;50.070;8.232;2022-08-21T09:30:26;99997.19;;;24.67;42.73
15817;BME280;8009;50.070;8.232;2022-08-21T09:32:56;99999.56;;;24.83;38.57
15817;BME280;8009;50.070;8.232;2022-08-21T09:35:27;99994.56;;;25.13;38.10
15817;BME280;8009;50.070;8.232;2022-08-21T09:37:59;99990.53;;;25.36;38.50
15817;BME280;8009;50.070;8.232;2022-08-21T09:40:35;99989.19;;;24.85;41.54
15817;BME280;8009;50.070;8.232;2022-08-21T09:43:06;99993.63;;;24.86;42.79
15817;BME280;8009;50.070;8.232;2022-08-21T09:45:35;99978.81;;;25.14;38.81
15817;BME280;8009;50.070;8.232;2022-08-21T09:48:09;99977.13;;;25.13;40.82
15817;BME280;8009;50.070;8.232;2022-08-21T09:50:41;99971.84;;;25.11;42.63
15817;BME280;8009;50.070;8.232;2022-08-21T09:53:18;99966.06;;;25.26;37.42
15817;BME280;8009;50.070;8.232;2022-08-21T09:55:49;99965.44;;;25.17;44.22
15817;BME280;8009;50.070;8.232;2022-08-21T09:58:34;99962.44;;;25.85;38.04
15817;BME280;8009;50.070;8.232;2022-08-21T10:01:11;99956.91;;;25.65;38.80
15817;BME280;8009;50.070;8.232;2022-08-21T10:03:40;99951.88;;;26.20;37.29
15817;BME280;8009;50.070;8.232;2022-08-21T10:06:22;99958.16;;;25.96;35.68
15817;BME280;8009;50.070;8.232;2022-08-21T10:08:51;99944.66;;;26.19;35.41
15817;BME280;8009;50.070;8.232;2022-08-21T10:11:31;99940.91;;;25.94;38.35
15817;BME280;8009;50.070;8.232;2022-08-21T10:14:06;99942.66;;;25.55;44.72
15817;BME280;8009;50.070;8.232;2022-08-21T10:16:46;99930.91;;;26.44;34.69
15817;BME280;8009;50.070;8.232;2022-08-21T10:19:24;99931.47;;;26.15;35.19
15817;BME280;8009;50.070;8.232;2022-08-21T10:22:10;99933.00;;;26.11;37.40
15817;BME280;8009;50.070;8.232;2022-08-21T10:24:49;99938.97;;;26.01;43.62
15817;BME280;8009;50.070;8.232;2022-08-21T10:27:30;99937.69;;;26.10;35.97
15817;BME280;8009;50.070;8.232;2022-08-21T10:30:06;99926.88;;;25.95;38.64
15817;BME280;8009;50.070;8.232;2022-08-21T10:32:50;99935.78;;;25.97;43.76
15817;BME280;8009;50.070;8.232;2022-08-21T10:35:26;99932.44;;;25.69;40.33
15817;BME280;8009;50.070;8.232;2022-08-21T10:41:12;99934.97;;;26.42;42.68
15817;BME280;8009;50.070;8.232;2022-08-21T10:43:51;99932.91;;;26.24;43.78
15817;BME280;8009;50.070;8.232;2022-08-21T10:46:32;99917.13;;;26.76;34.55
15817;BME280;8009;50.070;8.232;2022-08-21T10:49:12;99917.75;;;27.03;34.71
15817;BME280;8009;50.070;8.232;2022-08-21T10:51:49;99918.59;;;27.04;34.08
15817;BME280;8009;50.070;8.232;2022-08-21T10:54:30;99899.50;;;27.45;33.73
15817;BME280;8009;50.070;8.232;2022-08-21T10:57:03;99902.81;;;27.11;33.32
15817;BME280;8009;50.070;8.232;2022-08-21T10:59:39;99895.53;;;27.35;32.96
15817;BME280;8009;50.070;8.232;2022-08-21T11:02:15;99898.97;;;27.05;33.47
15817;BME280;8009;50.070;8.232;2022-08-21T11:04:51;99903.59;;;26.86;33.06
15817;BME280;8009;50.070;8.232;2022-08-21T11:07:26;99896.94;;;26.24;34.90
15817;BME280;8009;50.070;8.232;2022-08-21T11:10:04;99895.88;;;26.63;34.58
15817;BME280;8009;50.070;8.232;2022-08-21T11:12:38;99888.50;;;26.82;35.35
15817;BME280;8009;50.070;8.232;2022-08-21T11:15:19;99898.47;;;26.58;41.09
15817;BME280;8009;50.070;8.232;2022-08-21T11:17:55;99896.41;;;26.40;41.37
15817;BME280;8009;50.070;8.232;2022-08-21T11:20:34;99888.84;;;26.67;34.94
15817;BME280;8009;50.070;8.232;2022-08-21T11:23:19;99896.47;;;26.72;39.78
15817;BME280;8009;50.070;8.232;2022-08-21T11:25:58;99897.94;;;26.74;40.08
15817;BME280;8009;50.070;8.232;2022-08-21T11:28:33;99900.97;;;25.70;41.75
15817;BME280;8009;50.070;8.232;2022-08-21T11:31:10;99890.84;;;26.09;34.62
15817;BME280;8009;50.070;8.232;2022-08-21T11:33:54;99890.97;;;26.65;40.09
15817;BME280;8009;50.070;8.232;2022-08-21T11:36:32;99890.44;;;26.43;41.61
15817;BME280;8009;50.070;8.232;2022-08-21T11:39:12;99889.97;;;25.43;45.43
15817;BME280;8009;50.070;8.232;2022-08-21T11:41:52;99880.94;;;25.74;36.81
15817;BME280;8009;50.070;8.232;2022-08-21T11:44:32;99873.53;;;26.27;33.86
15817;BME280;8009;50.070;8.232;2022-08-21T11:47:10;99872.16;;;26.42;33.88
15817;BME280;8009;50.070;8.232;2022-08-21T11:50:00;99864.72;;;26.36;41.75
15817;BME280;8009;50.070;8.232;2022-08-21T11:52:34;99870.22;;;26.43;33.57
15817;BME280;8009;50.070;8.232;2022-08-21T11:55:08;99860.22;;;26.42;32.32
15817;BME280;8009;50.070;8.232;2022-08-21T11:57:49;99857.63;;;26.54;34.31
15817;BME280;8009;50.070;8.232;2022-08-21T12:00:22;99864.41;;;26.58;32.38
15817;BME280;8009;50.070;8.232;2022-08-21T12:02:55;99851.81;;;26.23;32.87
15817;BME280;8009;50.070;8.232;2022-08-21T12:05:30;99853.16;;;26.14;42.08
15817;BME280;8009;50.070;8.232;2022-08-21T12:08:09;99854.09;;;25.10;45.25
15817;BME280;8009;50.070;8.232;2022-08-21T12:10:40;99850.22;;;25.38;38.93
15817;BME280;8009;50.070;8.232;2022-08-21T12:13:22;99858.75;;;24.76;47.76
15817;BME280;8009;50.070;8.232;2022-08-21T12:15:51;99855.31;;;24.41;48.63
15817;BME280;8009;50.070;8.232;2022-08-21T12:18:29;99848.97;;;24.47;48.82
15817;BME280;8009;50.070;8.232;2022-08-21T12:21:03;99848.53;;;24.44;50.01
15817;BME280;8009;50.070;8.232;2022-08-21T12:23:33;99842.56;;;25.07;47.08
15817;BME280;8009;50.070;8.232;2022-08-21T12:26:25;99846.69;;;25.75;34.88
15817;BME280;8009;50.070;8.232;2022-08-21T12:29:14;99852.59;;;24.94;47.52
15817;BME280;8009;50.070;8.232;2022-08-21T12:31:57;99843.03;;;25.17;39.68
15817;BME280;8009;50.070;8.232;2022-08-21T12:34:33;99856.63;;;25.32;47.23
15817;BME280;8009;50.070;8.232;2022-08-21T12:37:05;99841.31;;;25.09;38.73
15817;BME280;8009;50.070;8.232;2022-08-21T12:39:38;99842.19;;;24.90;43.12
15817;BME280;8009;50.070;8.232;2022-08-21T12:42:16;99842.25;;;25.81;34.20
15817;BME280;8009;50.070;8.232;2022-08-21T12:44:50;99843.88;;;24.97;47.80
15817;BME280;8009;50.070;8.232;2022-08-21T12:47:26;99842.81;;;25.25;46.87
15817;BME280;8009;50.070;8.232;2022-08-21T12:50:00;99835.19;;;24.80;42.51
15817;BME280;8009;50.070;8.232;2022-08-21T12:52:34;99838.56;;;25.16;38.40
15817;BME280;8009;50.070;8.232;2022-08-21T12:55:04;99834.53;;;25.05;47.38
15817;BME280;8009;50.070;8.232;2022-08-21T12:57:36;99830.50;;;25.08;36.86
15817;BME280;8009;50.070;8.232;2022-08-21T13:00:11;99836.25;;;24.66;48.56
15817;BME280;8009;50.070;8.232;2022-08-21T13:02:45;99837.06;;;24.47;50.01
15817;BME280;8009;50.070;8.232;2022-08-21T13:05:19;99818.16;;;24.97;38.60
15817;BME280;8009;50.070;8.232;2022-08-21T13:07:52;99820.50;;;24.80;46.61
15817;BME280;8009;50.070;8.232;2022-08-21T13:10:23;99820.94;;;24.64;49.20
15817;BME280;8009;50.070;8.232;2022-08-21T13:12:54;99822.00;;;24.43;49.63
15817;BME280;8009;50.070;8.232;2022-08-21T13:15:30;99811.63;;;25.69;34.79
15817;BME280;8009;50.070;8.232;2022-08-21T13:18:00;99816.06;;;26.22;34.81
15817;BME280;8009;50.070;8.232;2022-08-21T13:20:32;99813.38;;;26.40;33.93
15817;BME280;8009;50.070;8.232;2022-08-21T13:23:01;99816.84;;;25.33;46.91
15817;BME280;8009;50.070;8.232;2022-08-21T13:25:35;99813.94;;;24.54;49.23
15817;BME280;8009;50.070;8.232;2022-08-21T13:28:06;99810.13;;;24.69;48.63
15817;BME280;8009;50.070;8.232;2022-08-21T13:30:43;99810.97;;;24.63;46.95